createdAt,value
2022-10-28T00:02:42.590Z,101269.76
2022-10-28T00:07:45.961Z,101270.52
2022-10-28T00:12:49.159Z,101268.68
2022-10-28T00:17:53.058Z,101264.95
2022-10-28T00:22:56.842Z,101268.27
2022-10-28T00:28:02.496Z,101265.33
2022-10-28T00:33:05.649Z,101258.96
2022-10-28T00:38:08.836Z,101256.45
2022-10-28T00:43:12.688Z,101245.48
2022-10-28T00:48:15.853Z,101238.52
2022-10-28T00:53:25.703Z,101237.96
2022-10-28T00:58:29.815Z,101231.19
2022-10-28T01:03:33.005Z,101230.66
2022-10-28T01:08:36.222Z,101220.47
2022-10-28T01:13:44.540Z,101215.16
2022-10-28T01:18:59.698Z,101210.92
2022-10-28T01:24:30.215Z,101210.11
2022-10-28T01:30:07.121Z,101202.92
2022-10-28T01:35:26.113Z,101200.76
2022-10-28T01:40:40.796Z,101198.55
2022-10-28T01:45:59.973Z,101197.64
2022-10-28T01:51:29.740Z,101194.84
2022-10-28T01:56:39.572Z,101184.32
2022-10-28T02:01:42.978Z,101171.13
2022-10-28T02:06:48.750Z,101172.09
2022-10-28T02:12:17.242Z,101172.96
2022-10-28T02:17:45.451Z,101174.81
2022-10-28T02:22:55.829Z,101167.17
2022-10-28T02:33:19.125Z,101175.48
2022-10-28T02:38:39.835Z,101174.71
2022-10-28T02:43:44.199Z,101172.58
2022-10-28T02:48:55.534Z,101173.83
2022-10-28T02:54:09.662Z,101171.92
2022-10-28T02:59:13.571Z,101165.84
2022-10-28T03:04:16.715Z,101160.80
2022-10-28T03:09:19.928Z,101166.09
2022-10-28T03:14:23.188Z,101165.77
2022-10-28T03:19:26.380Z,101164.50
2022-10-28T03:24:30.199Z,101157.77
2022-10-28T03:29:36.261Z,101151.45
2022-10-28T03:34:39.715Z,101151.29
2022-10-28T03:39:43.046Z,101155.32
2022-10-28T03:44:46.692Z,101154.71
2022-10-28T03:49:50.613Z,101150.66
2022-10-28T03:54:53.713Z,101137.84
2022-10-28T03:59:56.805Z,101144.08
2022-10-28T04:05:00.176Z,101145.18
2022-10-28T04:10:03.673Z,101141.71
2022-10-28T04:15:09.252Z,101139.01
2022-10-28T04:20:16.960Z,101141.23
2022-10-28T04:25:20.339Z,101142.42
2022-10-28T04:30:23.698Z,101140.44
2022-10-28T04:35:26.918Z,101138.69
2022-10-28T04:40:33.047Z,101122.10
2022-10-28T04:45:36.109Z,101117.21
2022-10-28T04:50:39.389Z,101114.34
2022-10-28T04:55:46.795Z,101113.95
2022-10-28T05:00:50.062Z,101112.72
2022-10-28T05:05:53.189Z,101115.99
2022-10-28T05:10:58.825Z,101119.33
2022-10-28T05:16:03.344Z,101118.85
2022-10-28T05:21:11.644Z,101120.55
2022-10-28T05:26:20.331Z,101107.54
2022-10-28T05:31:32.918Z,101107.09
2022-10-28T05:36:39.289Z,101111.02
2022-10-28T05:41:42.817Z,101114.07
2022-10-28T05:46:46.057Z,101119.18
2022-10-28T05:51:49.764Z,101114.77
2022-10-28T05:56:55.654Z,101109.86
2022-10-28T06:01:58.944Z,101103.00
2022-10-28T06:07:02.180Z,101107.05
2022-10-28T06:12:05.471Z,101102.41
2022-10-28T06:17:08.798Z,101103.27
2022-10-28T06:22:12.020Z,101103.19
2022-10-28T06:27:15.253Z,101099.73
2022-10-28T06:32:20.239Z,101102.60
2022-10-28T06:37:23.535Z,101098.77
2022-10-28T06:42:26.693Z,101107.33
2022-10-28T06:47:31.424Z,101113.53
2022-10-28T06:52:35.241Z,101123.56
2022-10-28T06:57:48.651Z,101127.68
2022-10-28T07:03:07.871Z,101129.19
2022-10-28T07:08:15.224Z,101131.09
2022-10-28T07:13:19.876Z,101124.24
2022-10-28T07:18:35.105Z,101117.19
2022-10-28T07:23:51.894Z,101124.45
2022-10-28T07:28:58.298Z,101116.73
2022-10-28T07:34:01.685Z,101119.74
2022-10-28T07:39:06.005Z,101115.73
2022-10-28T07:44:10.801Z,101121.59
2022-10-28T07:49:18.255Z,101134.68
2022-10-28T07:54:22.895Z,101129.81
2022-10-28T07:59:26.935Z,101128.56
2022-10-28T08:04:33.654Z,101123.75
2022-10-28T08:09:41.127Z,101119.66
2022-10-28T08:14:47.464Z,101112.92
2022-10-28T08:19:50.824Z,101110.73
2022-10-28T08:24:58.112Z,101101.75
2022-10-28T08:30:09.455Z,101101.91
2022-10-28T08:35:28.848Z,101103.38
2022-10-28T08:40:42.252Z,101104.25
2022-10-28T08:46:03.540Z,101107.80
2022-10-28T08:51:19.926Z,101106.73
2022-10-28T08:56:40.637Z,101107.05
2022-10-28T09:06:56.795Z,101108.33
2022-10-28T09:12:34.996Z,101106.71
2022-10-28T09:17:47.729Z,101107.36
2022-10-28T09:22:59.247Z,101106.95
2022-10-28T09:28:05.402Z,101104.59
2022-10-28T09:33:34.111Z,101100.52
2022-10-28T09:38:38.218Z,101097.91
2022-10-28T09:43:58.524Z,101091.17
2022-10-28T09:49:17.993Z,101098.69
2022-10-28T09:54:31.629Z,101106.68
2022-10-28T09:59:34.876Z,101104.38
2022-10-28T10:04:38.020Z,101096.09
2022-10-28T10:09:41.440Z,101090.73
2022-10-28T10:14:54.580Z,101086.35
2022-10-28T10:20:12.179Z,101080.17
2022-10-28T10:25:18.732Z,101078.90
2022-10-28T10:30:24.732Z,101082.64
2022-10-28T10:35:33.621Z,101078.53
2022-10-28T10:40:49.471Z,101074.30
2022-10-28T10:46:02.238Z,101066.59
2022-10-28T10:51:25.959Z,101058.27
2022-10-28T10:56:31.582Z,101052.50
2022-10-28T11:01:37.691Z,101050.15
2022-10-28T11:06:42.676Z,101051.29
2022-10-28T11:11:46.190Z,101051.65
2022-10-28T11:16:52.182Z,101051.93
2022-10-28T11:22:21.476Z,101046.94
2022-10-28T11:27:48.685Z,101034.34
2022-10-28T11:33:28.862Z,101019.89
2022-10-28T11:39:12.514Z,101015.57
2022-10-28T11:44:55.837Z,101020.45
2022-10-28T11:50:25.606Z,101023.00
2022-10-28T11:55:57.895Z,101017.83
2022-10-28T12:01:31.292Z,101008.91
2022-10-28T12:07:05.417Z,100995.27
2022-10-28T12:12:33.704Z,100992.10
2022-10-28T12:17:47.203Z,100992.75
2022-10-28T12:22:56.764Z,100990.95
2022-10-28T12:28:11.315Z,100987.14
2022-10-28T12:33:46.453Z,100983.14
2022-10-28T12:39:01.575Z,100970.91
2022-10-28T12:44:17.012Z,100956.50
2022-10-28T12:49:44.283Z,100950.44
2022-10-28T12:54:55.951Z,100955.01
2022-10-28T13:00:10.371Z,100953.48
2022-10-28T13:05:43.759Z,100946.83
2022-10-28T13:11:21.455Z,100943.92
2022-10-28T13:16:40.919Z,100942.38
2022-10-28T13:22:05.719Z,100937.34
2022-10-28T13:27:17.065Z,100928.54
2022-10-28T13:32:39.240Z,100923.59
2022-10-28T13:37:48.713Z,100920.88
2022-10-28T13:49:34.745Z,100913.27
2022-10-28T13:55:01.064Z,100910.77
2022-10-28T14:00:24.543Z,100920.33
2022-10-28T14:05:37.106Z,100935.80
2022-10-28T14:10:41.607Z,100932.06
2022-10-28T14:15:49.361Z,100934.59
2022-10-28T14:21:02.149Z,100935.17
2022-10-28T14:26:08.206Z,100927.36
2022-10-28T14:31:16.318Z,100926.19
2022-10-28T14:36:20.095Z,100928.71
2022-10-28T14:47:18.756Z,100915.16
2022-10-28T14:52:24.398Z,100917.41
2022-10-28T14:57:34.103Z,100913.58
2022-10-28T15:02:38.581Z,100905.14
2022-10-28T15:07:42.633Z,100905.00
2022-10-28T15:12:52.321Z,100896.13
2022-10-28T15:18:10.174Z,100896.46
2022-10-28T15:23:13.433Z,100897.29
2022-10-28T15:28:19.247Z,100899.52
2022-10-28T15:33:42.025Z,100901.08
2022-10-28T15:38:50.960Z,100901.84
2022-10-28T15:44:37.475Z,100903.76
2022-10-28T15:49:41.143Z,100910.71
2022-10-28T15:55:35.613Z,100905.55
2022-10-28T16:00:54.545Z,100902.44
2022-10-28T16:06:21.798Z,100909.69
2022-10-28T16:12:03.471Z,100904.98
2022-10-28T16:17:21.967Z,100897.19
2022-10-28T16:22:43.914Z,100900.34
2022-10-28T16:27:51.071Z,100903.36
2022-10-28T16:32:57.186Z,100901.17
2022-10-28T16:38:01.075Z,100900.69
2022-10-28T16:43:04.281Z,100906.23
2022-10-28T16:48:13.268Z,100909.73
2022-10-28T16:53:20.007Z,100917.70
2022-10-28T16:58:27.035Z,100920.46
2022-10-28T17:03:31.539Z,100926.51
2022-10-28T17:09:02.007Z,100919.50
2022-10-28T17:14:02.984Z,100908.06
2022-10-28T17:19:06.183Z,100901.16
2022-10-28T17:24:09.995Z,100911.77
2022-10-28T17:29:13.409Z,100917.71
2022-10-28T17:34:20.059Z,100916.08
2022-10-28T17:39:26.455Z,100918.10
2022-10-28T17:44:34.742Z,100916.64
2022-10-28T17:49:42.617Z,100911.70
2022-10-28T17:54:46.419Z,100906.08
2022-10-28T17:59:49.639Z,100913.26
2022-10-28T18:04:52.828Z,100909.95
2022-10-28T18:09:56.090Z,100914.14
2022-10-28T18:15:03.105Z,100903.54
2022-10-28T18:20:07.188Z,100899.87
2022-10-28T18:25:13.133Z,100895.02
2022-10-28T18:30:17.095Z,100895.23
2022-10-28T18:35:21.826Z,100889.83
2022-10-28T18:40:28.020Z,100890.89
2022-10-28T18:45:34.003Z,100888.11
2022-10-28T18:50:49.221Z,100889.71
2022-10-28T18:56:23.261Z,100889.83
2022-10-28T19:01:30.525Z,100887.46
2022-10-28T19:06:42.683Z,100891.70
2022-10-28T19:11:49.915Z,100888.02
2022-10-28T19:16:53.235Z,100877.33
2022-10-28T19:22:00.689Z,100876.27
2022-10-28T19:27:20.577Z,100882.02
2022-10-28T19:32:44.176Z,100881.32
2022-10-28T19:38:20.523Z,100879.81
2022-10-28T19:43:45.152Z,100881.67
2022-10-28T19:49:04.854Z,100888.84
2022-10-28T19:54:24.023Z,100884.67
2022-10-28T20:00:06.841Z,100885.17
2022-10-28T20:05:15.341Z,100881.88
2022-10-28T20:10:32.051Z,100871.74
2022-10-28T20:15:38.557Z,100868.73
2022-10-28T20:20:48.111Z,100870.43
2022-10-28T20:25:52.663Z,100866.36
2022-10-28T20:31:07.071Z,100862.84
2022-10-28T20:36:39.242Z,100858.00
2022-10-28T20:41:51.830Z,100860.36
2022-10-28T20:46:59.056Z,100861.95
2022-10-28T20:52:05.140Z,100861.04
2022-10-28T20:57:08.553Z,100866.76
2022-10-28T21:02:12.467Z,100867.13
2022-10-28T21:07:16.020Z,100860.70
2022-10-28T21:12:19.303Z,100857.08
2022-10-28T21:17:24.068Z,100859.32
2022-10-28T21:22:29.628Z,100857.56
2022-10-28T21:27:40.153Z,100853.44
2022-10-28T21:32:44.236Z,100850.66
2022-10-28T21:37:50.584Z,100851.63
2022-10-28T21:42:55.540Z,100854.45
2022-10-28T21:47:59.212Z,100848.52
2022-10-28T21:53:04.355Z,100844.54
2022-10-28T21:58:11.507Z,100845.81
2022-10-28T22:03:14.814Z,100840.33
2022-10-28T22:08:18.132Z,100841.83
2022-10-28T22:13:21.472Z,100834.23
2022-10-28T22:18:25.415Z,100829.79
2022-10-28T22:23:28.890Z,100828.10
2022-10-28T22:28:32.590Z,100826.06
2022-10-28T22:33:36.142Z,100834.60
2022-10-28T22:38:40.321Z,100832.59
2022-10-28T22:43:46.466Z,100833.24
2022-10-28T22:48:53.218Z,100835.05
2022-10-28T22:53:56.587Z,100836.30
2022-10-28T22:59:01.647Z,100838.30
2022-10-28T23:04:10.176Z,100833.69
2022-10-28T23:09:13.590Z,100831.39
2022-10-28T23:14:16.951Z,100830.27
2022-10-28T23:19:20.287Z,100826.76
2022-10-28T23:24:23.539Z,100828.79
2022-10-28T23:29:26.847Z,100832.94
2022-10-28T23:34:30.949Z,100837.13
2022-10-28T23:39:34.297Z,100832.16
2022-10-28T23:44:37.734Z,100828.20
2022-10-28T23:49:43.851Z,100832.02
2022-10-28T23:54:47.218Z,100829.31
2022-10-28T23:59:50.509Z,100826.80
